sensor_id;sensor_type;location;lat;lon;timestamp;P1;P2;P0
65574;PMS5003;52216;54.942;73.394;2022-11-15T00:01:23;0.00;0.00;0.00
65574;PMS5003;52216;54.942;73.394;2022-11-15T00:04:49;0.00;0.00;0.00
65574;PMS5003;52216;54.942;73.394;2022-11-15T00:08:11;0.00;0.00;0.00
65574;PMS5003;52216;54.942;73.394;2022-11-15T00:11:32;0.00;0.00;0.00
65574;PMS5003;52216;54.942;73.394;2022-11-15T00:14:54;0.00;0.00;0.00
65574;PMS5003;52216;54.942;73.394;2022-11-15T00:18:15;0.00;0.00;0.00
65574;PMS5003;52216;54.942;73.394;2022-11-15T00:21:37;0.00;0.00;0.00
65574;PMS5003;52216;54.942;73.394;2022-11-15T00:25:08;0.00;0.00;0.00
65574;PMS5003;52216;54.942;73.394;2022-11-15T00:28:34;0.00;0.00;0.00
65574;PMS5003;52216;54.942;73.394;2022-11-15T00:31:56;0.00;0.00;0.00
65574;PMS5003;52216;54.942;73.394;2022-11-15T00:35:27;0.00;0.00;0.00
65574;PMS5003;52216;54.942;73.394;2022-11-15T00:38:59;0.00;0.00;0.00
65574;PMS5003;52216;54.942;73.394;2022-11-15T00:42:21;0.00;0.00;0.00
65574;PMS5003;52216;54.942;73.394;2022-11-15T00:45:42;1.00;1.00;0.00
65574;PMS5003;52216;54.942;73.394;2022-11-15T00:49:04;0.00;0.00;0.00
65574;PMS5003;52216;54.942;73.394;2022-11-15T00:52:25;1.00;0.00;0.00
65574;PMS5003;52216;54.942;73.394;2022-11-15T00:55:47;0.00;0.00;0.00
65574;PMS5003;52216;54.942;73.394;2022-11-15T00:59:08;0.00;0.00;0.00
65574;PMS5003;52216;54.942;73.394;2022-11-15T01:02:30;0.00;0.00;0.00
65574;PMS5003;52216;54.942;73.394;2022-11-15T01:05:51;2.00;2.00;0.00
65574;PMS5003;52216;54.942;73.394;2022-11-15T01:09:23;1.00;1.00;0.00
65574;PMS5003;52216;54.942;73.394;2022-11-15T01:12:51;1.00;1.00;0.00
65574;PMS5003;52216;54.942;73.394;2022-11-15T01:16:13;1.00;0.25;0.00
65574;PMS5003;52216;54.942;73.394;2022-11-15T01:19:35;0.00;0.00;0.00
65574;PMS5003;52216;54.942;73.394;2022-11-15T01:22:57;0.00;0.00;0.00
65574;PMS5003;52216;54.942;73.394;2022-11-15T01:26:18;0.50;0.50;0.00
65574;PMS5003;52216;54.942;73.394;2022-11-15T01:29:40;1.00;1.00;0.00
65574;PMS5003;52216;54.942;73.394;2022-11-15T01:33:01;1.00;0.00;0.00
65574;PMS5003;52216;54.942;73.394;2022-11-15T01:36:22;2.00;1.00;0.00
65574;PMS5003;52216;54.942;73.394;2022-11-15T01:39:48;2.00;2.00;0.00
65574;PMS5003;52216;54.942;73.394;2022-11-15T01:46:40;3.00;2.00;0.00
65574;PMS5003;52216;54.942;73.394;2022-11-15T01:50:08;1.00;0.50;0.00
65574;PMS5003;52216;54.942;73.394;2022-11-15T01:53:31;1.00;1.00;0.00
65574;PMS5003;52216;54.942;73.394;2022-11-15T01:56:55;4.00;3.00;0.00
65574;PMS5003;52216;54.942;73.394;2022-11-15T02:00:18;3.00;2.00;0.00
65574;PMS5003;52216;54.942;73.394;2022-11-15T02:04:14;1.00;1.00;0.00
65574;PMS5003;52216;54.942;73.394;2022-11-15T02:07:27;1.75;0.25;0.00
65574;PMS5003;52216;54.942;73.394;2022-11-15T02:10:49;1.00;0.00;0.00
65574;PMS5003;52216;54.942;73.394;2022-11-15T02:14:11;2.00;1.00;0.00
65574;PMS5003;52216;54.942;73.394;2022-11-15T02:25:29;2.75;2.00;0.00
65574;PMS5003;52216;54.942;73.394;2022-11-15T02:29:05;3.00;2.25;0.00
65574;PMS5003;52216;54.942;73.394;2022-11-15T02:32:34;3.00;2.50;0.00
65574;PMS5003;52216;54.942;73.394;2022-11-15T02:35:59;3.00;2.00;0.00
65574;PMS5003;52216;54.942;73.394;2022-11-15T02:39:35;3.00;3.00;0.00
65574;PMS5003;52216;54.942;73.394;2022-11-15T02:43:02;3.00;2.00;0.00
65574;PMS5003;52216;54.942;73.394;2022-11-15T02:46:52;3.00;2.75;0.00
65574;PMS5003;52216;54.942;73.394;2022-11-15T02:50:34;2.00;2.00;0.00
65574;PMS5003;52216;54.942;73.394;2022-11-15T02:53:58;2.50;2.50;0.00
65574;PMS5003;52216;54.942;73.394;2022-11-15T02:57:20;3.00;2.00;0.00
65574;PMS5003;52216;54.942;73.394;2022-11-15T03:01:28;2.00;1.00;0.00
65574;PMS5003;52216;54.942;73.394;2022-11-15T03:04:35;3.00;2.25;0.00
65574;PMS5003;52216;54.942;73.394;2022-11-15T03:08:01;1.25;1.25;0.00
65574;PMS5003;52216;54.942;73.394;2022-11-15T03:11:26;3.00;1.50;0.00
65574;PMS5003;52216;54.942;73.394;2022-11-15T03:14:56;2.75;1.00;0.00
65574;PMS5003;52216;54.942;73.394;2022-11-15T03:18:19;2.00;1.75;0.00
65574;PMS5003;52216;54.942;73.394;2022-11-15T03:21:42;2.00;2.00;0.00
65574;PMS5003;52216;54.942;73.394;2022-11-15T03:25:06;1.50;0.00;0.00
65574;PMS5003;52216;54.942;73.394;2022-11-15T03:28:32;3.00;2.00;0.00
65574;PMS5003;52216;54.942;73.394;2022-11-15T03:32:07;1.25;0.25;0.00
65574;PMS5003;52216;54.942;73.394;2022-11-15T03:35:40;2.00;2.00;0.00
65574;PMS5003;52216;54.942;73.394;2022-11-15T03:39:05;3.00;3.00;0.00
65574;PMS5003;52216;54.942;73.394;2022-11-15T03:42:32;2.50;2.50;0.00
65574;PMS5003;52216;54.942;73.394;2022-11-15T03:45:58;1.50;1.00;0.00
65574;PMS5003;52216;54.942;73.394;2022-11-15T03:49:31;1.00;0.00;0.00
65574;PMS5003;52216;54.942;73.394;2022-11-15T03:52:55;2.75;2.00;0.00
65574;PMS5003;52216;54.942;73.394;2022-11-15T03:56:17;3.00;3.00;0.00
65574;PMS5003;52216;54.942;73.394;2022-11-15T03:59:38;3.00;2.75;0.00
65574;PMS5003;52216;54.942;73.394;2022-11-15T04:02:59;4.00;2.00;0.00
65574;PMS5003;52216;54.942;73.394;2022-11-15T04:06:21;3.00;3.00;0.00
65574;PMS5003;52216;54.942;73.394;2022-11-15T04:09:42;3.00;3.00;0.00
65574;PMS5003;52216;54.942;73.394;2022-11-15T04:13:22;3.00;2.00;0.00
65574;PMS5003;52216;54.942;73.394;2022-11-15T04:16:44;3.00;3.00;0.00
65574;PMS5003;52216;54.942;73.394;2022-11-15T04:20:26;3.00;3.00;0.00
65574;PMS5003;52216;54.942;73.394;2022-11-15T04:24:06;3.00;3.00;0.00
65574;PMS5003;52216;54.942;73.394;2022-11-15T04:27:28;4.00;4.00;1.00
65574;PMS5003;52216;54.942;73.394;2022-11-15T04:31:08;3.00;3.00;1.00
65574;PMS5003;52216;54.942;73.394;2022-11-15T04:34:48;4.75;4.50;2.50
65574;PMS5003;52216;54.942;73.394;2022-11-15T04:38:29;3.00;2.00;1.00
65574;PMS5003;52216;54.942;73.394;2022-11-15T04:42:09;3.00;3.00;0.00
65574;PMS5003;52216;54.942;73.394;2022-11-15T04:45:55;3.00;3.00;0.00
65574;PMS5003;52216;54.942;73.394;2022-11-15T04:49:17;3.00;3.00;0.00
65574;PMS5003;52216;54.942;73.394;2022-11-15T04:52:41;3.00;3.00;1.00
65574;PMS5003;52216;54.942;73.394;2022-11-15T04:56:03;2.00;2.00;0.00
65574;PMS5003;52216;54.942;73.394;2022-11-15T04:59:25;3.00;2.00;0.00
65574;PMS5003;52216;54.942;73.394;2022-11-15T05:02:46;3.00;2.75;0.00
65574;PMS5003;52216;54.942;73.394;2022-11-15T05:06:26;3.00;1.00;0.00
65574;PMS5003;52216;54.942;73.394;2022-11-15T05:09:48;3.00;3.00;0.00
65574;PMS5003;52216;54.942;73.394;2022-11-15T05:13:14;3.00;3.00;0.00
65574;PMS5003;52216;54.942;73.394;2022-11-15T05:16:36;3.00;2.50;0.00
65574;PMS5003;52216;54.942;73.394;2022-11-15T05:19:57;1.25;1.25;0.00
65574;PMS5003;52216;54.942;73.394;2022-11-15T05:23:24;3.00;3.00;0.00
65574;PMS5003;52216;54.942;73.394;2022-11-15T05:26:55;3.00;3.00;1.00
65574;PMS5003;52216;54.942;73.394;2022-11-15T05:30:17;3.00;3.00;1.00
65574;PMS5003;52216;54.942;73.394;2022-11-15T05:33:38;2.00;2.00;0.00
65574;PMS5003;52216;54.942;73.394;2022-11-15T05:37:00;3.00;2.00;0.00
65574;PMS5003;52216;54.942;73.394;2022-11-15T05:40:22;3.00;3.00;0.00
65574;PMS5003;52216;54.942;73.394;2022-11-15T05:43:48;3.00;3.00;0.00
65574;PMS5003;52216;54.942;73.394;2022-11-15T05:47:11;1.50;1.50;0.00
65574;PMS5003;52216;54.942;73.394;2022-11-15T05:50:35;1.00;1.00;0.00
65574;PMS5003;52216;54.942;73.394;2022-11-15T05:53:58;1.00;1.00;0.00
65574;PMS5003;52216;54.942;73.394;2022-11-15T05:57:19;1.00;1.00;0.00
65574;PMS5003;52216;54.942;73.394;2022-11-15T06:00:46;0.00;0.00;0.00
65574;PMS5003;52216;54.942;73.394;2022-11-15T06:04:12;0.00;0.00;0.00
65574;PMS5003;52216;54.942;73.394;2022-11-15T06:07:33;0.00;0.00;0.00
65574;PMS5003;52216;54.942;73.394;2022-11-15T06:10:55;0.25;0.25;0.00
65574;PMS5003;52216;54.942;73.394;2022-11-15T06:14:16;2.00;1.00;0.00
65574;PMS5003;52216;54.942;73.394;2022-11-15T06:17:38;8.25;7.00;3.00
65574;PMS5003;52216;54.942;73.394;2022-11-15T06:21:00;3.00;3.00;1.00
65574;PMS5003;52216;54.942;73.394;2022-11-15T06:24:21;2.00;1.00;0.00
65574;PMS5003;52216;54.942;73.394;2022-11-15T06:27:43;0.00;0.00;0.00
65574;PMS5003;52216;54.942;73.394;2022-11-15T06:31:05;0.00;0.00;0.00
65574;PMS5003;52216;54.942;73.394;2022-11-15T06:34:26;3.00;2.75;0.00
65574;PMS5003;52216;54.942;73.394;2022-11-15T06:37:48;3.00;3.00;0.00
65574;PMS5003;52216;54.942;73.394;2022-11-15T06:41:10;2.00;2.00;0.00
65574;PMS5003;52216;54.942;73.394;2022-11-15T06:44:31;1.00;1.00;0.00
65574;PMS5003;52216;54.942;73.394;2022-11-15T06:47:53;2.00;1.00;0.00
65574;PMS5003;52216;54.942;73.394;2022-11-15T06:51:21;3.00;2.00;0.00
65574;PMS5003;52216;54.942;73.394;2022-11-15T06:54:41;3.00;2.00;0.00
65574;PMS5003;52216;54.942;73.394;2022-11-15T06:58:03;2.00;2.00;0.00
65574;PMS5003;52216;54.942;73.394;2022-11-15T07:01:25;2.00;2.00;0.00
65574;PMS5003;52216;54.942;73.394;2022-11-15T07:04:45;3.00;2.00;0.00
65574;PMS5003;52216;54.942;73.394;2022-11-15T07:08:11;4.00;3.00;0.00
65574;PMS5003;52216;54.942;73.394;2022-11-15T07:11:32;3.00;3.00;0.00
65574;PMS5003;52216;54.942;73.394;2022-11-15T07:14:58;3.00;3.00;0.00
65574;PMS5003;52216;54.942;73.394;2022-11-15T07:18:19;3.00;3.00;0.00
65574;PMS5003;52216;54.942;73.394;2022-11-15T07:21:41;3.00;3.00;0.00
65574;PMS5003;52216;54.942;73.394;2022-11-15T07:25:03;5.00;3.00;0.00
65574;PMS5003;52216;54.942;73.394;2022-11-15T07:28:25;6.00;5.25;1.00
65574;PMS5003;52216;54.942;73.394;2022-11-15T07:31:47;3.00;3.00;1.00
65574;PMS5003;52216;54.942;73.394;2022-11-15T07:35:08;3.50;3.50;1.00
65574;PMS5003;52216;54.942;73.394;2022-11-15T07:38:30;4.00;4.00;2.00
65574;PMS5003;52216;54.942;73.394;2022-11-15T07:41:52;3.00;3.00;1.00
65574;PMS5003;52216;54.942;73.394;2022-11-15T07:45:33;3.00;3.00;0.00
65574;PMS5003;52216;54.942;73.394;2022-11-15T07:48:55;3.00;2.00;0.00
65574;PMS5003;52216;54.942;73.394;2022-11-15T07:52:17;3.00;3.00;0.00
65574;PMS5003;52216;54.942;73.394;2022-11-15T07:55:39;3.00;3.00;0.00
65574;PMS5003;52216;54.942;73.394;2022-11-15T07:59:00;2.50;2.00;0.00
65574;PMS5003;52216;54.942;73.394;2022-11-15T08:02:27;3.00;3.00;0.75
65574;PMS5003;52216;54.942;73.394;2022-11-15T08:05:50;3.00;3.00;1.00
65574;PMS5003;52216;54.942;73.394;2022-11-15T08:09:11;2.00;2.00;0.00
65574;PMS5003;52216;54.942;73.394;2022-11-15T08:12:38;2.25;0.75;0.00
65574;PMS5003;52216;54.942;73.394;2022-11-15T08:16:00;2.00;2.00;0.00
65574;PMS5003;52216;54.942;73.394;2022-11-15T08:19:27;1.25;1.00;0.00
65574;PMS5003;52216;54.942;73.394;2022-11-15T08:22:49;3.00;1.00;0.00
65574;PMS5003;52216;54.942;73.394;2022-11-15T08:26:10;0.00;0.00;0.00
65574;PMS5003;52216;54.942;73.394;2022-11-15T08:29:32;2.00;0.00;0.00
65574;PMS5003;52216;54.942;73.394;2022-11-15T08:32:58;1.00;1.00;0.00
65574;PMS5003;52216;54.942;73.394;2022-11-15T08:36:30;2.00;1.00;0.00
65574;PMS5003;52216;54.942;73.394;2022-11-15T08:39:52;1.75;1.00;0.00
65574;PMS5003;52216;54.942;73.394;2022-11-15T08:43:14;2.00;1.00;0.00
65574;PMS5003;52216;54.942;73.394;2022-11-15T08:46:40;0.00;0.00;0.00
65574;PMS5003;52216;54.942;73.394;2022-11-15T08:50:02;3.00;3.00;0.00
65574;PMS5003;52216;54.942;73.394;2022-11-15T08:53:24;2.00;2.00;0.00
65574;PMS5003;52216;54.942;73.394;2022-11-15T08:56:50;1.00;1.00;0.00
65574;PMS5003;52216;54.942;73.394;2022-11-15T09:00:12;1.00;1.00;0.00
65574;PMS5003;52216;54.942;73.394;2022-11-15T09:03:34;0.00;0.00;0.00
65574;PMS5003;52216;54.942;73.394;2022-11-15T09:07:05;0.00;0.00;0.00
65574;PMS5003;52216;54.942;73.394;2022-11-15T09:10:27;0.00;0.00;0.00
65574;PMS5003;52216;54.942;73.394;2022-11-15T09:13:49;2.00;0.00;0.00
65574;PMS5003;52216;54.942;73.394;2022-11-15T09:17:10;1.00;1.00;0.00
65574;PMS5003;52216;54.942;73.394;2022-11-15T09:20:37;3.75;3.00;0.00
65574;PMS5003;52216;54.942;73.394;2022-11-15T09:24:03;5.75;4.75;0.00
65574;PMS5003;52216;54.942;73.394;2022-11-15T09:27:28;5.75;5.00;0.00
65574;PMS5003;52216;54.942;73.394;2022-11-15T09:30:51;5.75;5.00;1.00
65574;PMS5003;52216;54.942;73.394;2022-11-15T09:34:17;4.00;4.00;2.00
65574;PMS5003;52216;54.942;73.394;2022-11-15T09:37:44;3.00;3.00;1.00
65574;PMS5003;52216;54.942;73.394;2022-11-15T09:51:48;1.00;1.00;0.00
65574;PMS5003;52216;54.942;73.394;2022-11-15T09:54:52;2.50;2.00;0.00
65574;PMS5003;52216;54.942;73.394;2022-11-15T09:57:59;2.00;1.00;0.00
65574;PMS5003;52216;54.942;73.394;2022-11-15T10:01:04;3.00;3.00;1.00
65574;PMS5003;52216;54.942;73.394;2022-11-15T10:04:14;2.00;2.00;1.00
65574;PMS5003;52216;54.942;73.394;2022-11-15T10:10:46;1.00;1.00;0.00
65574;PMS5003;52216;54.942;73.394;2022-11-15T10:13:47;1.00;1.00;1.00
65574;PMS5003;52216;54.942;73.394;2022-11-15T10:23:06;3.00;3.00;0.00
65574;PMS5003;52216;54.942;73.394;2022-11-15T10:26:15;3.00;3.00;0.00
65574;PMS5003;52216;54.942;73.394;2022-11-15T10:29:28;3.00;2.00;0.00
65574;PMS5003;52216;54.942;73.394;2022-11-15T10:32:36;3.00;3.00;0.00
65574;PMS5003;52216;54.942;73.394;2022-11-15T10:35:39;4.75;4.00;1.00
65574;PMS5003;52216;54.942;73.394;2022-11-15T10:39:00;4.00;3.00;0.50
65574;PMS5003;52216;54.942;73.394;2022-11-15T10:45:27;5.25;5.00;0.00
65574;PMS5003;52216;54.942;73.394;2022-11-15T10:48:30;3.00;3.00;0.00
65574;PMS5003;52216;54.942;73.394;2022-11-15T10:51:33;2.25;2.25;0.00
65574;PMS5003;52216;54.942;73.394;2022-11-15T10:55:19;0.00;0.00;0.00
65574;PMS5003;52216;54.942;73.394;2022-11-15T10:58:38;1.00;1.00;0.00
65574;PMS5003;52216;54.942;73.394;2022-11-15T11:01:46;0.00;0.00;0.00
65574;PMS5003;52216;54.942;73.394;2022-11-15T11:04:50;0.00;0.00;0.00
65574;PMS5003;52216;54.942;73.394;2022-11-15T11:07:57;0.00;0.00;0.00
65574;PMS5003;52216;54.942;73.394;2022-11-15T11:11:02;0.00;0.00;0.00
65574;PMS5003;52216;54.942;73.394;2022-11-15T11:14:12;0.00;0.00;0.00
65574;PMS5003;52216;54.942;73.394;2022-11-15T11:20:33;0.00;0.00;0.00
65574;PMS5003;52216;54.942;73.394;2022-11-15T11:30:08;0.00;0.00;0.00
65574;PMS5003;52216;54.942;73.394;2022-11-15T11:33:20;0.00;0.00;0.00
65574;PMS5003;52216;54.942;73.394;2022-11-15T11:36:32;0.00;0.00;0.00
65574;PMS5003;52216;54.942;73.394;2022-11-15T11:49:18;1.00;0.00;0.00
65574;PMS5003;52216;54.942;73.394;2022-11-15T11:52:30;1.00;0.00;0.00
65574;PMS5003;52216;54.942;73.394;2022-11-15T11:58:50;0.00;0.00;0.00
65574;PMS5003;52216;54.942;73.394;2022-11-15T12:02:14;0.00;0.00;0.00
65574;PMS5003;52216;54.942;73.394;2022-11-15T12:09:04;0.00;0.00;0.00
65574;PMS5003;52216;54.942;73.394;2022-11-15T12:15:23;0.00;0.00;0.00
65574;PMS5003;52216;54.942;73.394;2022-11-15T12:18:27;0.25;0.00;0.00
65574;PMS5003;52216;54.942;73.394;2022-11-15T12:21:50;0.00;0.00;0.00
65574;PMS5003;52216;54.942;73.394;2022-11-15T12:24:59;0.00;0.00;0.00
65574;PMS5003;52216;54.942;73.394;2022-11-15T12:28:12;0.00;0.00;0.00
65574;PMS5003;52216;54.942;73.394;2022-11-15T12:31:35;1.00;0.50;0.00
65574;PMS5003;52216;54.942;73.394;2022-11-15T12:34:43;0.00;0.00;0.00
65574;PMS5003;52216;54.942;73.394;2022-11-15T12:37:49;1.00;1.00;0.00
65574;PMS5003;52216;54.942;73.394;2022-11-15T12:41:12;0.00;0.00;0.00
65574;PMS5003;52216;54.942;73.394;2022-11-15T12:47:33;1.00;0.00;0.00
65574;PMS5003;52216;54.942;73.394;2022-11-15T12:53:57;1.00;1.00;0.00
65574;PMS5003;52216;54.942;73.394;2022-11-15T13:03:20;2.00;1.00;0.00
65574;PMS5003;52216;54.942;73.394;2022-11-15T13:06:40;3.00;2.75;0.00
65574;PMS5003;52216;54.942;73.394;2022-11-15T13:09:53;2.00;2.00;0.00
65574;PMS5003;52216;54.942;73.394;2022-11-15T13:13:00;3.00;3.00;0.00
65574;PMS5003;52216;54.942;73.394;2022-11-15T13:16:04;2.00;2.00;0.00
65574;PMS5003;52216;54.942;73.394;2022-11-15T13:19:09;4.00;3.00;0.00
65574;PMS5003;52216;54.942;73.394;2022-11-15T13:22:13;3.00;3.00;0.00
65574;PMS5003;52216;54.942;73.394;2022-11-15T13:28:56;2.25;2.25;0.00
65574;PMS5003;52216;54.942;73.394;2022-11-15T13:32:15;3.00;2.00;0.00
65574;PMS5003;52216;54.942;73.394;2022-11-15T13:35:23;2.00;2.00;0.00
65574;PMS5003;52216;54.942;73.394;2022-11-15T13:38:37;2.75;2.50;0.00
65574;PMS5003;52216;54.942;73.394;2022-11-15T13:41:50;2.00;2.00;0.00
65574;PMS5003;52216;54.942;73.394;2022-11-15T13:44:59;3.00;3.00;0.00
65574;PMS5003;52216;54.942;73.394;2022-11-15T13:48:02;1.00;1.00;0.00
65574;PMS5003;52216;54.942;73.394;2022-11-15T13:54:27;1.00;1.00;0.00
65574;PMS5003;52216;54.942;73.394;2022-11-15T13:57:43;0.25;0.00;0.00
65574;PMS5003;52216;54.942;73.394;2022-11-15T14:01:02;1.00;1.00;0.00
65574;PMS5003;52216;54.942;73.394;2022-11-15T14:04:05;0.00;0.00;0.00
65574;PMS5003;52216;54.942;73.394;2022-11-15T14:07:14;1.00;1.00;0.00
65574;PMS5003;52216;54.942;73.394;2022-11-15T14:13:33;0.00;0.00;0.00
65574;PMS5003;52216;54.942;73.394;2022-11-15T14:16:46;0.00;0.00;0.00
65574;PMS5003;52216;54.942;73.394;2022-11-15T14:19:50;0.00;0.00;0.00
65574;PMS5003;52216;54.942;73.394;2022-11-15T14:22:55;0.00;0.00;0.00
65574;PMS5003;52216;54.942;73.394;2022-11-15T14:25:58;0.00;0.00;0.00
65574;PMS5003;52216;54.942;73.394;2022-11-15T14:29:27;0.00;0.00;0.00
65574;PMS5003;52216;54.942;73.394;2022-11-15T14:33:11;0.00;0.00;0.00
65574;PMS5003;52216;54.942;73.394;2022-11-15T14:36:04;0.00;0.00;0.00
65574;PMS5003;52216;54.942;73.394;2022-11-15T14:39:08;0.00;0.00;0.00
65574;PMS5003;52216;54.942;73.394;2022-11-15T14:42:11;0.00;0.00;0.00
65574;PMS5003;52216;54.942;73.394;2022-11-15T14:45:26;2.00;1.00;0.00
65574;PMS5003;52216;54.942;73.394;2022-11-15T14:48:29;0.00;0.00;0.00
65574;PMS5003;52216;54.942;73.394;2022-11-15T14:51:38;0.00;0.00;0.00
65574;PMS5003;52216;54.942;73.394;2022-11-15T14:54:46;0.00;0.00;0.00
65574;PMS5003;52216;54.942;73.394;2022-11-15T14:57:49;0.00;0.00;0.00
65574;PMS5003;52216;54.942;73.394;2022-11-15T15:00:52;0.00;0.00;0.00
65574;PMS5003;52216;54.942;73.394;2022-11-15T15:03:55;0.00;0.00;0.00
65574;PMS5003;52216;54.942;73.394;2022-11-15T15:06:59;0.00;0.00;0.00
65574;PMS5003;52216;54.942;73.394;2022-11-15T15:10:03;0.00;0.00;0.00
65574;PMS5003;52216;54.942;73.394;2022-11-15T15:13:16;0.00;0.00;0.00
65574;PMS5003;52216;54.942;73.394;2022-11-15T15:16:20;0.00;0.00;0.00
65574;PMS5003;52216;54.942;73.394;2022-11-15T15:19:27;0.00;0.00;0.00
65574;PMS5003;52216;54.942;73.394;2022-11-15T15:22:36;0.00;0.00;0.00
65574;PMS5003;52216;54.942;73.394;2022-11-15T15:25:40;0.50;0.00;0.00
65574;PMS5003;52216;54.942;73.394;2022-11-15T15:28:44;2.00;0.25;0.00
65574;PMS5003;52216;54.942;73.394;2022-11-15T15:31:47;2.75;2.00;0.00
65574;PMS5003;52216;54.942;73.394;2022-11-15T15:34:50;1.00;1.00;0.00
65574;PMS5003;52216;54.942;73.394;2022-11-15T15:37:53;1.50;1.50;0.00
65574;PMS5003;52216;54.942;73.394;2022-11-15T15:40:56;5.00;4.00;0.00
65574;PMS5003;52216;54.942;73.394;2022-11-15T15:44:07;4.00;3.00;0.00
65574;PMS5003;52216;54.942;73.394;2022-11-15T15:47:11;1.00;1.00;0.00
65574;PMS5003;52216;54.942;73.394;2022-11-15T15:50:22;0.00;0.00;0.00
65574;PMS5003;52216;54.942;73.394;2022-11-15T15:53:25;0.00;0.00;0.00
65574;PMS5003;52216;54.942;73.394;2022-11-15T15:56:28;0.00;0.00;0.00
65574;PMS5003;52216;54.942;73.394;2022-11-15T15:59:32;0.00;0.00;0.00
65574;PMS5003;52216;54.942;73.394;2022-11-15T16:02:35;0.00;0.00;0.00
65574;PMS5003;52216;54.942;73.394;2022-11-15T16:05:49;0.00;0.00;0.00
65574;PMS5003;52216;54.942;73.394;2022-11-15T16:08:57;0.00;0.00;0.00
65574;PMS5003;52216;54.942;73.394;2022-11-15T16:12:10;0.00;0.00;0.00
65574;PMS5003;52216;54.942;73.394;2022-11-15T16:15:13;0.00;0.00;0.00
65574;PMS5003;52216;54.942;73.394;2022-11-15T16:18:17;0.00;0.00;0.00
65574;PMS5003;52216;54.942;73.394;2022-11-15T16:21:21;0.00;0.00;0.00
65574;PMS5003;52216;54.942;73.394;2022-11-15T16:24:24;0.00;0.00;0.00
65574;PMS5003;52216;54.942;73.394;2022-11-15T16:27:32;0.00;0.00;0.00
65574;PMS5003;52216;54.942;73.394;2022-11-15T16:30:36;1.00;0.00;0.00
65574;PMS5003;52216;54.942;73.394;2022-11-15T16:33:44;0.00;0.00;0.00
65574;PMS5003;52216;54.942;73.394;2022-11-15T16:36:55;0.00;0.00;0.00
65574;PMS5003;52216;54.942;73.394;2022-11-15T16:39:58;0.00;0.00;0.00
65574;PMS5003;52216;54.942;73.394;2022-11-15T16:43:05;0.00;0.00;0.00
65574;PMS5003;52216;54.942;73.394;2022-11-15T16:46:12;0.00;0.00;0.00
65574;PMS5003;52216;54.942;73.394;2022-11-15T16:49:21;0.00;0.00;0.00
65574;PMS5003;52216;54.942;73.394;2022-11-15T16:52:25;0.00;0.00;0.00
65574;PMS5003;52216;54.942;73.394;2022-11-15T16:55:38;0.00;0.00;0.00
65574;PMS5003;52216;54.942;73.394;2022-11-15T16:58:41;0.00;0.00;0.00
65574;PMS5003;52216;54.942;73.394;2022-11-15T17:01:54;0.00;0.00;0.00
65574;PMS5003;52216;54.942;73.394;2022-11-15T17:05:06;0.00;0.00;0.00
65574;PMS5003;52216;54.942;73.394;2022-11-15T17:08:14;0.00;0.00;0.00
65574;PMS5003;52216;54.942;73.394;2022-11-15T17:11:27;0.00;0.00;0.00
65574;PMS5003;52216;54.942;73.394;2022-11-15T17:14:29;0.00;0.00;0.00
65574;PMS5003;52216;54.942;73.394;2022-11-15T17:17:32;0.00;0.00;0.00
65574;PMS5003;52216;54.942;73.394;2022-11-15T17:20:35;0.00;0.00;0.00
65574;PMS5003;52216;54.942;73.394;2022-11-15T17:23:39;0.00;0.00;0.00
65574;PMS5003;52216;54.942;73.394;2022-11-15T17:26:42;0.00;0.00;0.00
65574;PMS5003;52216;54.942;73.394;2022-11-15T17:29:45;0.00;0.00;0.00
65574;PMS5003;52216;54.942;73.394;2022-11-15T17:32:52;0.00;0.00;0.00
65574;PMS5003;52216;54.942;73.394;2022-11-15T17:35:56;0.00;0.00;0.00
65574;PMS5003;52216;54.942;73.394;2022-11-15T17:38:59;0.00;0.00;0.00
65574;PMS5003;52216;54.942;73.394;2022-11-15T17:42:02;0.00;0.00;0.00
65574;PMS5003;52216;54.942;73.394;2022-11-15T17:45:05;0.00;0.00;0.00
65574;PMS5003;52216;54.942;73.394;2022-11-15T17:48:08;0.00;0.00;0.00
65574;PMS5003;52216;54.942;73.394;2022-11-15T17:51:12;0.00;0.00;0.00
65574;PMS5003;52216;54.942;73.394;2022-11-15T17:54:16;0.00;0.00;0.00
65574;PMS5003;52216;54.942;73.394;2022-11-15T17:57:28;0.00;0.00;0.00
65574;PMS5003;52216;54.942;73.394;2022-11-15T18:00:32;0.00;0.00;0.00
65574;PMS5003;52216;54.942;73.394;2022-11-15T18:03:35;0.00;0.00;0.00
65574;PMS5003;52216;54.942;73.394;2022-11-15T18:06:39;0.00;0.00;0.00
65574;PMS5003;52216;54.942;73.394;2022-11-15T18:09:45;0.00;0.00;0.00
65574;PMS5003;52216;54.942;73.394;2022-11-15T18:12:52;0.00;0.00;0.00
65574;PMS5003;52216;54.942;73.394;2022-11-15T18:15:55;0.00;0.00;0.00
65574;PMS5003;52216;54.942;73.394;2022-11-15T18:19:05;0.00;0.00;0.00
65574;PMS5003;52216;54.942;73.394;2022-11-15T18:22:18;0.00;0.00;0.00
65574;PMS5003;52216;54.942;73.394;2022-11-15T18:25:27;0.00;0.00;0.00
65574;PMS5003;52216;54.942;73.394;2022-11-15T18:28:30;0.00;0.00;0.00
65574;PMS5003;52216;54.942;73.394;2022-11-15T18:31:34;0.00;0.00;0.00
65574;PMS5003;52216;54.942;73.394;2022-11-15T18:34:38;0.00;0.00;0.00
65574;PMS5003;52216;54.942;73.394;2022-11-15T18:37:51;0.00;0.00;0.00
65574;PMS5003;52216;54.942;73.394;2022-11-15T18:41:05;0.00;0.00;0.00
65574;PMS5003;52216;54.942;73.394;2022-11-15T18:44:13;0.00;0.00;0.00
65574;PMS5003;52216;54.942;73.394;2022-11-15T18:47:16;0.00;0.00;0.00
65574;PMS5003;52216;54.942;73.394;2022-11-15T18:50:19;0.00;0.00;0.00
65574;PMS5003;52216;54.942;73.394;2022-11-15T18:53:22;0.00;0.00;0.00
65574;PMS5003;52216;54.942;73.394;2022-11-15T18:56:35;0.00;0.00;0.00
65574;PMS5003;52216;54.942;73.394;2022-11-15T18:59:38;1.25;0.00;0.00
65574;PMS5003;52216;54.942;73.394;2022-11-15T19:02:41;1.00;0.00;0.00
65574;PMS5003;52216;54.942;73.394;2022-11-15T19:05:59;0.00;0.00;0.00
65574;PMS5003;52216;54.942;73.394;2022-11-15T19:09:02;0.00;0.00;0.00
65574;PMS5003;52216;54.942;73.394;2022-11-15T19:12:11;0.00;0.00;0.00
65574;PMS5003;52216;54.942;73.394;2022-11-15T19:15:14;1.00;0.00;0.00
65574;PMS5003;52216;54.942;73.394;2022-11-15T19:18:22;1.00;0.00;0.00
65574;PMS5003;52216;54.942;73.394;2022-11-15T19:21:36;0.00;0.00;0.00
65574;PMS5003;52216;54.942;73.394;2022-11-15T19:24:40;0.00;0.00;0.00
65574;PMS5003;52216;54.942;73.394;2022-11-15T19:27:43;0.00;0.00;0.00
65574;PMS5003;52216;54.942;73.394;2022-11-15T19:31:06;0.00;0.00;0.00
65574;PMS5003;52216;54.942;73.394;2022-11-15T19:34:15;0.00;0.00;0.00
65574;PMS5003;52216;54.942;73.394;2022-11-15T19:37:29;0.00;0.00;0.00
65574;PMS5003;52216;54.942;73.394;2022-11-15T19:40:45;0.00;0.00;0.00
65574;PMS5003;52216;54.942;73.394;2022-11-15T19:43:48;0.00;0.00;0.00
65574;PMS5003;52216;54.942;73.394;2022-11-15T19:47:00;0.00;0.00;0.00
65574;PMS5003;52216;54.942;73.394;2022-11-15T19:50:03;1.00;0.00;0.00
65574;PMS5003;52216;54.942;73.394;2022-11-15T19:53:16;1.75;0.00;0.00
65574;PMS5003;52216;54.942;73.394;2022-11-15T19:56:20;0.00;0.00;0.00
65574;PMS5003;52216;54.942;73.394;2022-11-15T19:59:24;0.00;0.00;0.00
65574;PMS5003;52216;54.942;73.394;2022-11-15T20:02:27;0.00;0.00;0.00
65574;PMS5003;52216;54.942;73.394;2022-11-15T20:05:39;0.00;0.00;0.00
65574;PMS5003;52216;54.942;73.394;2022-11-15T20:08:47;0.00;0.00;0.00
65574;PMS5003;52216;54.942;73.394;2022-11-15T20:11:56;0.00;0.00;0.00
65574;PMS5003;52216;54.942;73.394;2022-11-15T20:15:00;0.00;0.00;0.00
65574;PMS5003;52216;54.942;73.394;2022-11-15T20:18:03;0.00;0.00;0.00